createdAt,value
2022-10-20T00:02:08.033Z,100681.41
2022-10-20T00:04:36.025Z,100679.75
2022-10-20T00:07:03.998Z,100682.41
2022-10-20T00:09:41.277Z,100674.56
2022-10-20T00:12:08.332Z,100671.03
2022-10-20T00:14:39.418Z,100664.72
2022-10-20T00:17:07.525Z,100680.41
2022-10-20T00:19:34.463Z,100680.34
2022-10-20T00:22:05.350Z,100677.69
2022-10-20T00:24:33.348Z,100673.25
2022-10-20T00:27:00.357Z,100671.47
2022-10-20T00:29:28.263Z,100677.56
2022-10-20T00:31:56.137Z,100676.66
2022-10-20T00:34:30.289Z,100683.78
2022-10-20T00:37:10.423Z,100678.63
2022-10-20T00:39:38.483Z,100681.19
2022-10-20T00:42:08.264Z,100673.25
2022-10-20T00:44:50.779Z,100668.88
2022-10-20T00:47:28.996Z,100670.47
2022-10-20T00:50:03.978Z,100669.63
2022-10-20T00:52:40.514Z,100672.25
2022-10-20T00:55:10.246Z,100667.88
2022-10-20T00:57:44.776Z,100657.28
2022-10-20T01:00:16.742Z,100654.59
2022-10-20T01:02:45.171Z,100659.84
2022-10-20T01:05:13.282Z,100660.91
2022-10-20T01:07:40.444Z,100655.81
2022-10-20T01:10:10.775Z,100650.53
2022-10-20T01:12:54.798Z,100653.09
2022-10-20T01:15:38.863Z,100653.00
2022-10-20T01:18:30.633Z,100658.28
2022-10-20T01:21:22.279Z,100657.47
2022-10-20T01:24:15.209Z,100646.97
2022-10-20T01:27:14.501Z,100655.69
2022-10-20T01:30:15.567Z,100656.56
2022-10-20T01:32:54.674Z,100651.31
2022-10-20T01:35:31.013Z,100664.44
2022-10-20T01:38:30.872Z,100662.63
2022-10-20T01:41:10.848Z,100641.63
2022-10-20T01:43:41.403Z,100657.44
2022-10-20T01:46:12.899Z,100651.31
2022-10-20T01:48:40.886Z,100653.94
2022-10-20T01:51:10.202Z,100649.56
2022-10-20T01:53:40.187Z,100649.66
2022-10-20T01:56:18.582Z,100648.78
2022-10-20T01:59:16.946Z,100643.53
2022-10-20T02:02:12.149Z,100640.94
2022-10-20T02:05:02.079Z,100648.06
2022-10-20T02:07:31.862Z,100640.25
2022-10-20T02:10:22.267Z,100630.66
2022-10-20T02:12:59.267Z,100638.59
2022-10-20T02:15:31.185Z,100637.78
2022-10-20T02:18:03.719Z,100634.38
2022-10-20T02:20:32.467Z,100630.88
2022-10-20T02:23:03.105Z,100629.13
2022-10-20T02:25:31.273Z,100631.81
2022-10-20T02:28:02.634Z,100630.06
2022-10-20T02:30:31.763Z,100628.34
2022-10-20T02:32:58.764Z,100633.59
2022-10-20T02:35:33.240Z,100637.97
2022-10-20T02:38:01.905Z,100635.34
2022-10-20T02:40:30.647Z,100637.97
2022-10-20T02:42:57.623Z,100640.59
2022-10-20T02:45:25.724Z,100640.56
2022-10-20T02:47:53.788Z,100639.72
2022-10-20T02:50:27.027Z,100642.41
2022-10-20T02:52:54.113Z,100636.34
2022-10-20T02:55:26.057Z,100642.44
2022-10-20T02:57:54.306Z,100643.31
2022-10-20T03:00:23.731Z,100635.44
2022-10-20T03:02:51.667Z,100646.78
2022-10-20T03:05:19.782Z,100648.53
2022-10-20T03:07:46.779Z,100644.19
2022-10-20T03:10:13.662Z,100650.31
2022-10-20T03:12:40.664Z,100639.84
2022-10-20T03:15:07.883Z,100642.44
2022-10-20T03:17:36.327Z,100645.94
2022-10-20T03:20:12.024Z,100634.59
2022-10-20T03:22:42.027Z,100645.94
2022-10-20T03:25:09.126Z,100642.44
2022-10-20T03:27:37.391Z,100652.91
2022-10-20T03:30:06.245Z,100645.94
2022-10-20T03:32:33.432Z,100647.66
2022-10-20T03:35:00.556Z,100646.78
2022-10-20T03:37:28.597Z,100642.38
2022-10-20T03:39:57.532Z,100649.19
2022-10-20T03:42:24.577Z,100654.34
2022-10-20T03:44:51.682Z,100654.25
2022-10-20T03:47:19.020Z,100655.19
2022-10-20T03:49:47.022Z,100662.91
2022-10-20T03:52:15.037Z,100659.38
2022-10-20T03:54:42.037Z,100664.56
2022-10-20T03:57:10.290Z,100676.63
2022-10-20T03:59:38.208Z,100678.28
2022-10-20T04:02:06.298Z,100674.09
2022-10-20T04:04:33.462Z,100667.97
2022-10-20T04:07:00.428Z,100664.66
2022-10-20T04:09:28.371Z,100662.91
2022-10-20T04:11:55.353Z,100661.16
2022-10-20T04:14:26.314Z,100661.97
2022-10-20T04:17:00.497Z,100661.09
2022-10-20T04:19:28.463Z,100659.38
2022-10-20T04:21:55.423Z,100666.38
2022-10-20T04:24:23.338Z,100666.44
2022-10-20T04:29:24.587Z,100668.16
2022-10-20T04:31:51.649Z,100670.78
2022-10-20T04:34:18.677Z,100661.19
2022-10-20T04:36:45.710Z,100653.38
2022-10-20T04:39:13.723Z,100656.84
2022-10-20T04:41:40.569Z,100655.03
2022-10-20T04:44:07.606Z,100651.63
2022-10-20T04:46:34.624Z,100642.03
2022-10-20T04:49:01.642Z,100650.69
2022-10-20T04:51:28.589Z,100647.19
2022-10-20T04:53:55.628Z,100648.88
2022-10-20T04:56:23.385Z,100648.81
2022-10-20T04:58:58.384Z,100647.94
2022-10-20T05:01:27.866Z,100642.75
2022-10-20T05:03:55.389Z,100634.00
2022-10-20T05:06:27.824Z,100635.75
2022-10-20T05:08:58.120Z,100639.22
2022-10-20T05:11:27.327Z,100634.97
2022-10-20T05:13:54.929Z,100633.97
2022-10-20T05:16:21.976Z,100637.44
2022-10-20T05:18:49.452Z,100646.94
2022-10-20T05:21:19.778Z,100642.44
2022-10-20T05:23:47.089Z,100646.84
2022-10-20T05:26:19.004Z,100652.06
2022-10-20T05:28:49.697Z,100652.91
2022-10-20T05:31:19.026Z,100654.53
2022-10-20T05:33:48.456Z,100658.00
2022-10-20T05:36:21.561Z,100655.44
2022-10-20T05:38:52.397Z,100656.19
2022-10-20T05:41:25.294Z,100658.00
2022-10-20T05:43:54.507Z,100656.41
2022-10-20T05:46:21.530Z,100659.03
2022-10-20T05:48:48.649Z,100666.06
2022-10-20T05:54:03.848Z,100660.91
2022-10-20T05:56:32.083Z,100648.72
2022-10-20T05:58:59.473Z,100645.28
2022-10-20T06:01:39.359Z,100648.81
2022-10-20T06:04:08.972Z,100652.31
2022-10-20T06:06:36.504Z,100647.13
2022-10-20T06:09:07.049Z,100646.25
2022-10-20T06:11:38.376Z,100647.16
2022-10-20T06:14:06.921Z,100646.31
2022-10-20T06:16:34.465Z,100653.31
2022-10-20T06:19:01.743Z,100652.53
2022-10-20T06:21:31.646Z,100654.31
2022-10-20T06:24:00.338Z,100657.88
2022-10-20T06:26:36.757Z,100663.19
2022-10-20T06:29:06.288Z,100663.19
2022-10-20T06:31:41.523Z,100667.63
2022-10-20T06:34:17.360Z,100678.97
2022-10-20T06:36:44.916Z,100674.59
2022-10-20T06:39:14.780Z,100674.59
2022-10-20T06:41:42.466Z,100678.06
2022-10-20T06:44:09.615Z,100667.59
2022-10-20T06:46:37.429Z,100675.53
2022-10-20T06:49:07.003Z,100665.13
2022-10-20T06:51:35.489Z,100679.06
2022-10-20T06:54:02.775Z,100671.22
2022-10-20T06:56:32.816Z,100666.00
2022-10-20T06:59:01.188Z,100661.66
2022-10-20T07:01:30.919Z,100666.88
2022-10-20T07:04:01.559Z,100663.31
2022-10-20T07:06:31.746Z,100660.66
2022-10-20T07:08:59.700Z,100658.88
2022-10-20T07:11:29.411Z,100669.31
2022-10-20T07:14:02.106Z,100676.19
2022-10-20T07:16:32.785Z,100675.28
2022-10-20T07:19:01.544Z,100675.19
2022-10-20T07:21:32.656Z,100676.91
2022-10-20T07:24:05.423Z,100688.22
2022-10-20T07:26:34.879Z,100680.22
2022-10-20T07:29:03.317Z,100677.50
2022-10-20T07:31:38.765Z,100677.44
2022-10-20T07:34:23.711Z,100680.88
2022-10-20T07:36:51.647Z,100670.34
2022-10-20T07:39:18.799Z,100666.75
2022-10-20T07:41:47.578Z,100659.66
2022-10-20T07:44:15.068Z,100669.22
2022-10-20T07:46:42.182Z,100668.19
2022-10-20T07:49:43.080Z,100662.81
2022-10-20T07:51:57.239Z,100655.72
2022-10-20T07:54:24.187Z,100652.91
2022-10-20T07:56:51.058Z,100653.75
2022-10-20T07:59:18.111Z,100654.47
2022-10-20T08:01:45.302Z,100645.53
2022-10-20T08:04:12.320Z,100648.91
2022-10-20T08:06:39.681Z,100650.66
2022-10-20T08:09:07.701Z,100657.72
2022-10-20T08:11:35.265Z,100648.75
2022-10-20T08:14:02.383Z,100650.44
2022-10-20T08:16:31.461Z,100656.53
2022-10-20T08:18:58.496Z,100651.19
2022-10-20T08:21:26.435Z,100647.44
2022-10-20T08:23:53.412Z,100652.63
2022-10-20T08:26:25.919Z,100643.59
2022-10-20T08:28:54.383Z,100636.47
2022-10-20T08:31:22.539Z,100649.59
2022-10-20T08:33:52.863Z,100648.78
2022-10-20T08:36:21.340Z,100640.69
2022-10-20T08:38:49.030Z,100643.84
2022-10-20T08:41:22.459Z,100645.41
2022-10-20T08:43:52.277Z,100650.34
2022-10-20T08:46:21.534Z,100647.94
2022-10-20T08:48:49.421Z,100646.38
2022-10-20T08:51:22.707Z,100654.16
2022-10-20T08:53:52.343Z,100644.19
2022-10-20T08:56:27.402Z,100649.34
2022-10-20T08:58:54.484Z,100639.41
2022-10-20T09:01:31.073Z,100632.38
2022-10-20T09:04:04.794Z,100635.63
2022-10-20T09:06:31.639Z,100637.44
2022-10-20T09:09:00.988Z,100636.22
2022-10-20T09:11:36.895Z,100628.34
2022-10-20T09:14:04.327Z,100631.84
2022-10-20T09:16:58.741Z,100632.81
2022-10-20T09:19:27.446Z,100629.03
2022-10-20T09:21:59.034Z,100635.31
2022-10-20T09:24:30.376Z,100632.69
2022-10-20T09:27:16.128Z,100635.50
2022-10-20T09:29:43.176Z,100632.69
2022-10-20T09:32:46.429Z,100626.00
2022-10-20T09:35:22.291Z,100625.03
2022-10-20T09:38:16.914Z,100631.53
2022-10-20T09:41:08.433Z,100625.56
2022-10-20T09:43:38.746Z,100627.81
2022-10-20T09:46:09.798Z,100624.09
2022-10-20T09:48:48.054Z,100625.75
2022-10-20T09:51:20.435Z,100626.13
2022-10-20T09:54:08.459Z,100623.53
2022-10-20T09:56:39.295Z,100617.56
2022-10-20T09:59:32.944Z,100607.09
2022-10-20T10:02:23.677Z,100603.50
2022-10-20T10:04:52.828Z,100603.72
2022-10-20T10:07:22.803Z,100616.34
2022-10-20T10:10:08.494Z,100617.41
2022-10-20T10:12:36.427Z,100617.66
2022-10-20T10:15:29.216Z,100619.56
2022-10-20T10:17:58.302Z,100612.28
2022-10-20T10:20:39.127Z,100604.22
2022-10-20T10:23:20.219Z,100595.47
2022-10-20T10:25:48.169Z,100597.03
2022-10-20T10:28:37.121Z,100597.97
2022-10-20T10:31:18.881Z,100589.41
2022-10-20T10:33:47.438Z,100592.59
2022-10-20T10:36:37.600Z,100585.53
2022-10-20T10:39:07.791Z,100591.16
2022-10-20T10:42:04.348Z,100583.38
2022-10-20T10:44:55.749Z,100577.66
2022-10-20T10:48:03.641Z,100571.63
2022-10-20T10:51:03.574Z,100581.13
2022-10-20T10:53:39.388Z,100573.09
2022-10-20T10:56:31.209Z,100575.69
2022-10-20T10:59:12.933Z,100574.47
2022-10-20T11:02:01.233Z,100575.50
2022-10-20T11:04:44.068Z,100560.59
2022-10-20T11:07:40.331Z,100554.25
2022-10-20T11:10:22.366Z,100554.91
2022-10-20T11:12:49.385Z,100538.69
2022-10-20T11:15:36.587Z,100539.22
2022-10-20T11:18:54.964Z,100529.78
2022-10-20T11:21:34.881Z,100534.94
2022-10-20T11:24:18.045Z,100520.38
2022-10-20T11:26:48.025Z,100514.81
2022-10-20T11:29:28.667Z,100514.91
2022-10-20T11:32:14.525Z,100504.47
2022-10-20T11:34:53.148Z,100505.13
2022-10-20T11:37:30.589Z,100499.88
2022-10-20T11:40:08.748Z,100491.16
2022-10-20T11:42:42.197Z,100481.69
2022-10-20T11:45:45.433Z,100486.00
2022-10-20T11:48:28.250Z,100479.00
2022-10-20T11:51:10.534Z,100480.75
2022-10-20T11:54:07.922Z,100466.78
2022-10-20T11:57:02.789Z,100464.75
2022-10-20T11:59:59.422Z,100460.03
2022-10-20T12:02:58.822Z,100451.75
2022-10-20T12:05:53.784Z,100447.69
2022-10-20T12:08:48.671Z,100437.91
2022-10-20T12:11:32.144Z,100430.63
2022-10-20T12:14:14.387Z,100430.78
2022-10-20T12:16:58.465Z,100413.81
2022-10-20T12:19:27.402Z,100422.75
2022-10-20T12:22:00.583Z,100422.59
2022-10-20T12:24:40.765Z,100417.13
2022-10-20T12:27:07.735Z,100409.56
2022-10-20T12:29:34.633Z,100408.44
2022-10-20T12:32:29.541Z,100405.78
2022-10-20T12:34:59.394Z,100400.38
2022-10-20T12:37:34.969Z,100393.94
2022-10-20T12:40:08.339Z,100388.34
2022-10-20T12:42:46.586Z,100389.44
2022-10-20T12:45:19.317Z,100383.63
2022-10-20T12:48:07.197Z,100389.38
2022-10-20T12:50:41.702Z,100377.19
2022-10-20T12:53:13.172Z,100373.09
2022-10-20T12:55:42.219Z,100369.13
2022-10-20T12:58:18.588Z,100360.25
2022-10-20T13:00:49.787Z,100357.41
2022-10-20T13:03:43.288Z,100356.97
2022-10-20T13:06:31.119Z,100359.16
2022-10-20T13:09:04.043Z,100356.88
2022-10-20T13:11:39.714Z,100353.78
2022-10-20T13:14:29.357Z,100346.44
2022-10-20T13:17:06.860Z,100354.81
2022-10-20T13:20:15.855Z,100351.44
2022-10-20T13:22:47.370Z,100344.88
2022-10-20T13:25:38.077Z,100346.69
2022-10-20T13:28:04.912Z,100338.84
2022-10-20T13:30:33.820Z,100336.63
2022-10-20T13:33:33.771Z,100335.31
2022-10-20T13:36:29.593Z,100336.97
2022-10-20T13:39:05.749Z,100330.16
2022-10-20T13:42:26.311Z,100332.34
2022-10-20T13:45:02.316Z,100320.41
2022-10-20T13:47:50.484Z,100325.03
2022-10-20T13:50:22.778Z,100323.06
2022-10-20T13:52:58.032Z,100335.25
2022-10-20T13:55:31.069Z,100328.81
2022-10-20T13:58:07.839Z,100323.56
2022-10-20T14:00:36.484Z,100322.47
2022-10-20T14:03:15.468Z,100320.25
2022-10-20T14:05:42.575Z,100316.06
2022-10-20T14:08:17.823Z,100313.41
2022-10-20T14:10:57.519Z,100314.78
2022-10-20T14:13:34.827Z,100317.47
2022-10-20T14:16:06.158Z,100315.59
2022-10-20T14:18:39.820Z,100310.28
2022-10-20T14:21:19.699Z,100301.72
2022-10-20T14:23:49.498Z,100302.44
2022-10-20T14:26:21.833Z,100301.00
2022-10-20T14:28:54.105Z,100295.16
2022-10-20T14:31:23.768Z,100294.47
2022-10-20T14:33:52.714Z,100289.88
2022-10-20T14:36:23.452Z,100289.75
2022-10-20T14:38:54.223Z,100289.38
2022-10-20T14:41:30.565Z,100288.72
2022-10-20T14:44:12.193Z,100295.47
2022-10-20T14:46:48.343Z,100296.66
2022-10-20T14:49:38.906Z,100280.88
2022-10-20T14:52:29.188Z,100284.03
2022-10-20T14:54:56.310Z,100286.59
2022-10-20T14:57:31.161Z,100282.72
2022-10-20T15:00:22.527Z,100276.66
2022-10-20T15:02:56.719Z,100269.56
2022-10-20T15:05:42.107Z,100265.13
2022-10-20T15:08:10.842Z,100265.81
2022-10-20T15:10:39.218Z,100264.06
2022-10-20T15:13:23.644Z,100250.69
2022-10-20T15:15:54.188Z,100257.66
2022-10-20T15:18:24.335Z,100248.09
2022-10-20T15:20:53.954Z,100254.38
2022-10-20T15:23:28.938Z,100238.44
2022-10-20T15:26:12.484Z,100249.94
2022-10-20T15:28:43.884Z,100253.34
2022-10-20T15:31:22.971Z,100243.94
2022-10-20T15:33:52.245Z,100232.28
2022-10-20T15:36:26.920Z,100227.63
2022-10-20T15:38:54.696Z,100220.84
2022-10-20T15:41:30.914Z,100225.13
2022-10-20T15:44:05.519Z,100223.50
2022-10-20T15:46:34.814Z,100224.97
2022-10-20T15:49:01.974Z,100226.34
2022-10-20T15:51:34.452Z,100225.78
2022-10-20T15:54:04.778Z,100226.09
2022-10-20T15:56:33.373Z,100225.94
2022-10-20T15:59:00.422Z,100228.19
2022-10-20T16:01:28.439Z,100232.00
2022-10-20T16:03:56.562Z,100227.88
2022-10-20T16:06:23.578Z,100225.91
2022-10-20T16:08:51.859Z,100224.22
2022-10-20T16:11:23.791Z,100223.75
2022-10-20T16:13:51.993Z,100227.19
2022-10-20T16:16:20.009Z,100222.66
2022-10-20T16:18:57.065Z,100218.44
2022-10-20T16:21:25.069Z,100221.78
2022-10-20T16:23:53.209Z,100230.06
2022-10-20T16:26:21.683Z,100224.94
2022-10-20T16:28:49.018Z,100223.13
2022-10-20T16:31:24.322Z,100228.78
2022-10-20T16:33:52.086Z,100218.53
2022-10-20T16:36:21.944Z,100218.88
2022-10-20T16:38:55.694Z,100219.16
2022-10-20T16:41:23.198Z,100219.47
2022-10-20T16:43:50.833Z,100224.75
2022-10-20T16:46:23.813Z,100218.22
2022-10-20T16:48:57.516Z,100215.16
2022-10-20T16:51:26.413Z,100216.53
2022-10-20T16:54:03.097Z,100197.16
2022-10-20T16:56:31.835Z,100213.09
2022-10-20T16:58:59.502Z,100218.28
2022-10-20T17:01:26.712Z,100222.56
2022-10-20T17:03:54.304Z,100223.16
2022-10-20T17:06:24.762Z,100227.25
2022-10-20T17:08:54.666Z,100230.38
2022-10-20T17:11:25.143Z,100221.03
2022-10-20T17:13:53.959Z,100224.47
2022-10-20T17:16:28.445Z,100222.81
2022-10-20T17:19:01.960Z,100231.44
2022-10-20T17:21:31.600Z,100222.03
2022-10-20T17:23:58.918Z,100221.19
2022-10-20T17:26:30.693Z,100222.22
2022-10-20T17:29:00.435Z,100226.81
2022-10-20T17:31:28.616Z,100216.44
2022-10-20T17:33:57.865Z,100214.09
2022-10-20T17:36:27.379Z,100213.56
2022-10-20T17:39:06.792Z,100215.59
2022-10-20T17:41:35.582Z,100221.22
2022-10-20T17:44:05.246Z,100203.19
2022-10-20T17:46:36.908Z,100210.56
2022-10-20T17:49:06.297Z,100202.84
2022-10-20T17:51:35.065Z,100202.84
2022-10-20T17:54:03.230Z,100194.00
2022-10-20T17:56:36.162Z,100199.47
2022-10-20T18:01:41.312Z,100195.00
2022-10-20T18:04:17.016Z,100201.38
2022-10-20T18:06:46.067Z,100198.81
2022-10-20T18:09:16.662Z,100199.00
2022-10-20T18:11:47.903Z,100196.41
2022-10-20T18:14:15.782Z,100202.72
2022-10-20T18:16:43.694Z,100191.38
2022-10-20T18:19:18.938Z,100188.06
2022-10-20T18:21:47.864Z,100192.41
2022-10-20T18:24:16.736Z,100184.59
2022-10-20T18:26:44.703Z,100186.28
2022-10-20T18:29:13.562Z,100184.69
2022-10-20T18:31:45.834Z,100182.88
2022-10-20T18:34:18.792Z,100184.78
2022-10-20T18:36:46.344Z,100185.00
2022-10-20T18:39:14.883Z,100181.41
2022-10-20T18:41:43.833Z,100167.59
2022-10-20T18:44:17.943Z,100164.00
2022-10-20T18:46:47.036Z,100155.22
2022-10-20T18:49:19.709Z,100149.31
2022-10-20T18:51:48.443Z,100138.81
2022-10-20T18:54:20.035Z,100145.88
2022-10-20T18:56:48.186Z,100150.28
2022-10-20T18:59:16.615Z,100142.56
2022-10-20T19:01:49.034Z,100141.81
2022-10-20T19:04:17.669Z,100146.25
2022-10-20T19:06:47.673Z,100144.88
2022-10-20T19:09:18.310Z,100143.09
2022-10-20T19:11:46.714Z,100141.38
2022-10-20T19:14:15.244Z,100137.19
2022-10-20T19:16:46.867Z,100146.78
2022-10-20T19:19:14.413Z,100150.22
2022-10-20T19:21:43.035Z,100133.59
2022-10-20T19:24:19.245Z,100135.50
2022-10-20T19:27:02.007Z,100121.53
2022-10-20T19:29:37.744Z,100127.09
2022-10-20T19:32:06.608Z,100131.34
2022-10-20T19:34:39.936Z,100130.63
2022-10-20T19:37:08.735Z,100133.41
2022-10-20T19:39:43.382Z,100125.56
2022-10-20T19:42:14.334Z,100130.00
2022-10-20T19:44:44.265Z,100124.75
2022-10-20T19:47:12.365Z,100115.09
2022-10-20T19:49:46.162Z,100110.91
2022-10-20T19:52:14.316Z,100105.78
2022-10-20T19:54:43.563Z,100106.56
2022-10-20T19:57:11.079Z,100103.19
2022-10-20T19:59:40.301Z,100109.34
2022-10-20T20:02:08.411Z,100107.72
2022-10-20T20:04:35.697Z,100112.94
2022-10-20T20:07:03.246Z,100104.16
2022-10-20T20:09:42.792Z,100097.13
2022-10-20T20:12:12.458Z,100100.84
2022-10-20T20:14:40.923Z,100094.69
2022-10-20T20:17:13.649Z,100094.63
2022-10-20T20:19:41.947Z,100099.84
2022-10-20T20:22:09.579Z,100092.09
2022-10-20T20:24:39.315Z,100085.09
2022-10-20T20:27:06.360Z,100081.69
2022-10-20T20:29:35.214Z,100087.09
2022-10-20T20:32:05.447Z,100081.84
2022-10-20T20:34:34.434Z,100080.25
2022-10-20T20:37:03.718Z,100088.22
2022-10-20T20:39:31.875Z,100071.53
2022-10-20T20:41:59.693Z,100084.69
2022-10-20T20:44:27.758Z,100082.13
2022-10-20T20:46:55.835Z,100078.78
2022-10-20T20:49:23.848Z,100077.03
2022-10-20T20:51:50.902Z,100074.38
2022-10-20T20:54:24.321Z,100061.28
2022-10-20T20:56:53.517Z,100057.78
2022-10-20T20:59:20.503Z,100060.53
2022-10-20T21:01:49.635Z,100048.31
2022-10-20T21:04:17.562Z,100055.25
2022-10-20T21:07:01.763Z,100040.44
2022-10-20T21:09:29.678Z,100041.34
2022-10-20T21:11:57.769Z,100037.03
2022-10-20T21:14:26.034Z,100040.59
2022-10-20T21:16:55.097Z,100045.00
2022-10-20T21:19:22.365Z,100024.84
2022-10-20T21:21:50.958Z,100029.19
2022-10-20T21:24:20.227Z,100037.06
2022-10-20T21:26:48.982Z,100029.25
2022-10-20T21:29:17.496Z,100037.94
2022-10-20T21:31:46.427Z,100023.94
2022-10-20T21:34:13.526Z,100035.25
2022-10-20T21:36:41.622Z,100030.78
2022-10-20T21:39:11.827Z,100019.38
2022-10-20T21:41:43.395Z,100024.47
2022-10-20T21:44:13.958Z,100014.00
2022-10-20T21:46:47.699Z,100018.28
2022-10-20T21:49:17.979Z,100019.16
2022-10-20T21:51:50.123Z,100014.66
2022-10-20T21:54:19.392Z,100025.13
2022-10-20T21:56:50.007Z,100016.34
2022-10-20T21:59:27.360Z,100013.00
2022-10-20T22:01:58.006Z,100009.38
2022-10-20T22:04:28.358Z,100000.66
2022-10-20T22:06:56.653Z,100004.97
2022-10-20T22:09:24.037Z,100003.28
2022-10-20T22:11:56.273Z,99991.94
2022-10-20T22:14:23.480Z,99987.56
2022-10-20T22:16:51.117Z,99994.53
2022-10-20T22:19:21.959Z,99984.97
2022-10-20T22:21:52.465Z,99984.25
2022-10-20T22:24:20.512Z,99982.34
2022-10-20T22:26:51.809Z,99987.72
2022-10-20T22:29:20.942Z,99990.31
2022-10-20T22:31:50.100Z,99976.38
2022-10-20T22:34:17.457Z,99991.22
2022-10-20T22:36:46.476Z,99985.91
2022-10-20T22:39:13.964Z,99971.91
2022-10-20T22:41:42.934Z,99962.31
2022-10-20T22:44:10.289Z,99971.03
2022-10-20T22:46:37.449Z,99957.88
2022-10-20T22:49:12.241Z,99942.19
2022-10-20T22:51:45.084Z,99931.84
2022-10-20T22:54:18.077Z,99941.41
2022-10-20T22:56:52.996Z,99945.66
2022-10-20T22:59:20.985Z,99944.75
2022-10-20T23:01:48.052Z,99944.72
2022-10-20T23:04:19.091Z,99948.19
2022-10-20T23:06:47.080Z,99942.94
2022-10-20T23:09:14.140Z,99930.72
2022-10-20T23:11:43.177Z,99943.81
2022-10-20T23:21:52.185Z,99939.13
2022-10-20T23:24:21.257Z,99939.22
2022-10-20T23:26:48.477Z,99932.09
2022-10-20T23:29:15.456Z,99931.94
2022-10-20T23:31:44.434Z,99937.13
2022-10-20T23:34:12.475Z,99944.16
2022-10-20T23:36:39.450Z,99943.09
2022-10-20T23:39:07.480Z,99941.44
2022-10-20T23:41:34.464Z,99948.47
2022-10-20T23:44:02.483Z,99945.75
2022-10-20T23:46:32.772Z,99939.63
2022-10-20T23:49:02.752Z,99938.66
2022-10-20T23:51:30.002Z,99943.06
2022-10-20T23:53:58.115Z,99929.81
2022-10-20T23:56:25.132Z,99926.22
2022-10-20T23:58:52.141Z,99922.72
